sensor_id;sensor_type;location;lat;lon;timestamp;pressure;altitude;pressure_sealevel;temperature;humidity
72285;BME280;60220;53.552;10.092;2022-10-15T00:01:07;100395.63;;;14.93;84.07
72285;BME280;60220;53.552;10.092;2022-10-15T00:03:36;100392.31;;;14.86;84.25
72285;BME280;60220;53.552;10.092;2022-10-15T00:06:04;100393.69;;;14.73;85.62
72285;BME280;60220;53.552;10.092;2022-10-15T00:08:31;100395.53;;;14.94;84.28
72285;BME280;60220;53.552;10.092;2022-10-15T00:11:02;100391.94;;;15.20;83.83
72285;BME280;60220;53.552;10.092;2022-10-15T00:13:28;100392.13;;;15.16;83.00
72285;BME280;60220;53.552;10.092;2022-10-15T00:15:56;100390.84;;;15.26;84.15
72285;BME280;60220;53.552;10.092;2022-10-15T00:18:23;100393.03;;;14.91;84.41
72285;BME280;60220;53.552;10.092;2022-10-15T00:20:49;100386.19;;;14.61;86.32
72285;BME280;60220;53.552;10.092;2022-10-15T00:23:16;100390.25;;;15.19;84.43
72285;BME280;60220;53.552;10.092;2022-10-15T00:25:42;100387.94;;;14.85;85.43
72285;BME280;60220;53.552;10.092;2022-10-15T00:28:09;100390.97;;;14.75;86.07
72285;BME280;60220;53.552;10.092;2022-10-15T00:30:35;100391.31;;;14.65;87.11
72285;BME280;60220;53.552;10.092;2022-10-15T00:33:03;100393.28;;;15.08;86.83
72285;BME280;60220;53.552;10.092;2022-10-15T00:35:30;100388.03;;;15.30;84.40
72285;BME280;60220;53.552;10.092;2022-10-15T00:37:56;100386.72;;;15.19;84.50
72285;BME280;60220;53.552;10.092;2022-10-15T00:40:23;100380.69;;;15.15;84.66
72285;BME280;60220;53.552;10.092;2022-10-15T00:42:49;100387.88;;;14.88;85.86
72285;BME280;60220;53.552;10.092;2022-10-15T00:45:16;100384.06;;;14.95;85.36
72285;BME280;60220;53.552;10.092;2022-10-15T00:47:45;100385.66;;;14.76;86.55
72285;BME280;60220;53.552;10.092;2022-10-15T00:50:16;100393.25;;;14.85;86.12
72285;BME280;60220;53.552;10.092;2022-10-15T00:52:52;100393.25;;;15.78;82.92
72285;BME280;60220;53.552;10.092;2022-10-15T00:55:26;100385.53;;;15.04;84.93
72285;BME280;60220;53.552;10.092;2022-10-15T00:57:55;100386.03;;;15.14;85.43
72285;BME280;60220;53.552;10.092;2022-10-15T01:00:23;100381.84;;;15.76;83.57
72285;BME280;60220;53.552;10.092;2022-10-15T01:02:49;100380.59;;;15.40;83.02
72285;BME280;60220;53.552;10.092;2022-10-15T01:05:17;100378.53;;;15.48;83.55
72285;BME280;60220;53.552;10.092;2022-10-15T01:07:44;100384.72;;;15.02;85.93
72285;BME280;60220;53.552;10.092;2022-10-15T01:10:13;100376.84;;;15.90;84.10
72285;BME280;60220;53.552;10.092;2022-10-15T01:12:57;100380.06;;;15.99;80.83
72285;BME280;60220;53.552;10.092;2022-10-15T01:15:33;100379.72;;;15.18;84.42
72285;BME280;60220;53.552;10.092;2022-10-15T01:18:07;100378.28;;;15.77;83.31
72285;BME280;60220;53.552;10.092;2022-10-15T01:20:46;100375.63;;;15.32;84.27
72285;BME280;60220;53.552;10.092;2022-10-15T01:23:30;100368.63;;;15.76;81.99
72285;BME280;60220;53.552;10.092;2022-10-15T01:26:18;100371.97;;;15.35;84.84
72285;BME280;60220;53.552;10.092;2022-10-15T01:28:58;100375.00;;;15.71;82.49
72285;BME280;60220;53.552;10.092;2022-10-15T01:31:36;100377.81;;;16.10;80.63
72285;BME280;60220;53.552;10.092;2022-10-15T01:34:10;100371.69;;;16.50;78.79
72285;BME280;60220;53.552;10.092;2022-10-15T01:36:44;100372.34;;;16.34;79.24
72285;BME280;60220;53.552;10.092;2022-10-15T01:39:15;100366.69;;;16.02;80.32
72285;BME280;60220;53.552;10.092;2022-10-15T01:41:51;100367.25;;;16.30;79.41
72285;BME280;60220;53.552;10.092;2022-10-15T01:44:21;100363.66;;;16.11;79.76
72285;BME280;60220;53.552;10.092;2022-10-15T01:46:54;100363.06;;;15.61;82.59
72285;BME280;60220;53.552;10.092;2022-10-15T01:49:27;100357.53;;;15.67;80.96
72285;BME280;60220;53.552;10.092;2022-10-15T01:51:57;100359.72;;;15.34;83.12
72285;BME280;60220;53.552;10.092;2022-10-15T01:54:26;100363.16;;;15.13;81.77
72285;BME280;60220;53.552;10.092;2022-10-15T01:56:54;100365.81;;;15.13;81.87
72285;BME280;60220;53.552;10.092;2022-10-15T01:59:25;100373.72;;;14.89;82.82
72285;BME280;60220;53.552;10.092;2022-10-15T02:04:29;100366.22;;;15.47;80.59
72285;BME280;60220;53.552;10.092;2022-10-15T02:06:59;100366.06;;;15.05;81.47
72285;BME280;60220;53.552;10.092;2022-10-15T02:09:35;100372.34;;;15.26;80.46
72285;BME280;60220;53.552;10.092;2022-10-15T02:12:10;100368.78;;;15.27;80.28
72285;BME280;60220;53.552;10.092;2022-10-15T02:14:48;100368.97;;;15.22;80.09
72285;BME280;60220;53.552;10.092;2022-10-15T02:17:23;100372.44;;;15.46;78.52
72285;BME280;60220;53.552;10.092;2022-10-15T02:19:55;100366.44;;;15.19;79.86
72285;BME280;60220;53.552;10.092;2022-10-15T02:22:26;100363.13;;;15.14;79.87
72285;BME280;60220;53.552;10.092;2022-10-15T02:25:00;100366.19;;;15.25;79.41
72285;BME280;60220;53.552;10.092;2022-10-15T02:27:29;100365.03;;;15.56;77.90
72285;BME280;60220;53.552;10.092;2022-10-15T02:29:58;100359.13;;;15.26;78.54
72285;BME280;60220;53.552;10.092;2022-10-15T02:32:29;100354.78;;;15.46;78.25
72285;BME280;60220;53.552;10.092;2022-10-15T02:34:58;100348.31;;;15.32;78.74
72285;BME280;60220;53.552;10.092;2022-10-15T02:37:28;100345.78;;;15.05;79.00
72285;BME280;60220;53.552;10.092;2022-10-15T02:39:56;100343.09;;;14.84;80.57
72285;BME280;60220;53.552;10.092;2022-10-15T02:42:23;100347.94;;;15.19;79.31
72285;BME280;60220;53.552;10.092;2022-10-15T02:44:52;100347.69;;;15.70;76.88
72285;BME280;60220;53.552;10.092;2022-10-15T02:47:21;100345.47;;;15.81;76.91
72285;BME280;60220;53.552;10.092;2022-10-15T02:49:47;100354.72;;;15.03;79.42
72285;BME280;60220;53.552;10.092;2022-10-15T02:52:17;100347.66;;;15.48;78.27
72285;BME280;60220;53.552;10.092;2022-10-15T02:54:44;100350.59;;;14.94;78.95
72285;BME280;60220;53.552;10.092;2022-10-15T02:57:10;100356.31;;;14.84;78.77
72285;BME280;60220;53.552;10.092;2022-10-15T02:59:39;100352.63;;;15.11;77.32
72285;BME280;60220;53.552;10.092;2022-10-15T03:02:06;100349.22;;;14.35;80.33
72285;BME280;60220;53.552;10.092;2022-10-15T03:04:33;100349.13;;;15.11;76.92
72285;BME280;60220;53.552;10.092;2022-10-15T03:06:59;100347.31;;;14.89;77.92
72285;BME280;60220;53.552;10.092;2022-10-15T03:09:27;100354.06;;;14.96;77.46
72285;BME280;60220;53.552;10.092;2022-10-15T03:11:56;100353.50;;;14.88;77.68
72285;BME280;60220;53.552;10.092;2022-10-15T03:14:23;100357.19;;;14.84;77.74
72285;BME280;60220;53.552;10.092;2022-10-15T03:16:52;100356.31;;;14.84;78.16
72285;BME280;60220;53.552;10.092;2022-10-15T03:19:18;100364.34;;;15.27;76.31
72285;BME280;60220;53.552;10.092;2022-10-15T03:21:47;100367.63;;;15.11;76.52
72285;BME280;60220;53.552;10.092;2022-10-15T03:24:14;100363.03;;;14.92;76.12
72285;BME280;60220;53.552;10.092;2022-10-15T03:26:41;100365.00;;;14.87;76.55
72285;BME280;60220;53.552;10.092;2022-10-15T03:29:08;100363.44;;;15.05;76.19
72285;BME280;60220;53.552;10.092;2022-10-15T03:31:35;100363.72;;;14.74;76.83
72285;BME280;60220;53.552;10.092;2022-10-15T03:34:01;100368.59;;;14.85;76.17
72285;BME280;60220;53.552;10.092;2022-10-15T03:36:30;100363.25;;;15.09;76.00
72285;BME280;60220;53.552;10.092;2022-10-15T03:38:57;100359.13;;;15.26;73.82
72285;BME280;60220;53.552;10.092;2022-10-15T03:41:23;100360.28;;;14.95;75.78
72285;BME280;60220;53.552;10.092;2022-10-15T03:43:52;100360.91;;;14.54;76.31
72285;BME280;60220;53.552;10.092;2022-10-15T03:46:18;100363.16;;;15.13;74.96
72285;BME280;60220;53.552;10.092;2022-10-15T03:48:48;100364.06;;;15.58;72.47
72285;BME280;60220;53.552;10.092;2022-10-15T03:51:15;100372.06;;;15.57;72.83
72285;BME280;60220;53.552;10.092;2022-10-15T03:53:44;100365.66;;;15.62;72.74
72285;BME280;60220;53.552;10.092;2022-10-15T03:56:10;100373.78;;;15.11;75.04
72285;BME280;60220;53.552;10.092;2022-10-15T03:58:37;100372.50;;;13.97;79.05
72285;BME280;60220;53.552;10.092;2022-10-15T04:01:09;100367.81;;;15.06;75.09
72285;BME280;60220;53.552;10.092;2022-10-15T04:03:38;100359.91;;;14.81;75.58
72285;BME280;60220;53.552;10.092;2022-10-15T04:06:05;100358.75;;;14.65;76.43
72285;BME280;60220;53.552;10.092;2022-10-15T04:08:32;100362.69;;;14.78;76.50
72285;BME280;60220;53.552;10.092;2022-10-15T04:11:01;100361.06;;;15.21;73.94
72285;BME280;60220;53.552;10.092;2022-10-15T04:13:28;100364.19;;;15.08;73.43
72285;BME280;60220;53.552;10.092;2022-10-15T04:15:55;100367.38;;;14.70;75.51
72285;BME280;60220;53.552;10.092;2022-10-15T04:18:22;100364.03;;;14.40;76.66
72285;BME280;60220;53.552;10.092;2022-10-15T04:20:51;100370.88;;;14.46;76.54
72285;BME280;60220;53.552;10.092;2022-10-15T04:23:18;100370.06;;;14.17;77.89
72285;BME280;60220;53.552;10.092;2022-10-15T04:25:44;100370.94;;;14.69;76.25
72285;BME280;60220;53.552;10.092;2022-10-15T04:28:13;100367.31;;;14.47;77.04
72285;BME280;60220;53.552;10.092;2022-10-15T04:30:40;100371.22;;;14.85;75.64
72285;BME280;60220;53.552;10.092;2022-10-15T04:33:06;100371.09;;;14.13;78.81
72285;BME280;60220;53.552;10.092;2022-10-15T04:35:34;100375.16;;;13.97;79.25
72285;BME280;60220;53.552;10.092;2022-10-15T04:38:01;100373.31;;;14.77;77.21
72285;BME280;60220;53.552;10.092;2022-10-15T04:40:28;100367.81;;;14.32;78.55
72285;BME280;60220;53.552;10.092;2022-10-15T04:42:54;100372.06;;;14.37;78.08
72285;BME280;60220;53.552;10.092;2022-10-15T04:45:21;100373.44;;;14.49;78.45
72285;BME280;60220;53.552;10.092;2022-10-15T04:47:47;100384.41;;;14.86;76.86
72285;BME280;60220;53.552;10.092;2022-10-15T04:50:14;100381.72;;;15.11;75.17
72285;BME280;60220;53.552;10.092;2022-10-15T04:52:42;100386.94;;;14.89;75.81
72285;BME280;60220;53.552;10.092;2022-10-15T04:55:08;100384.91;;;14.48;78.20
72285;BME280;60220;53.552;10.092;2022-10-15T04:57:37;100387.81;;;13.86;80.30
72285;BME280;60220;53.552;10.092;2022-10-15T05:00:05;100387.22;;;14.57;77.70
72285;BME280;60220;53.552;10.092;2022-10-15T05:02:32;100388.22;;;14.54;76.97
72285;BME280;60220;53.552;10.092;2022-10-15T05:05:00;100395.75;;;14.12;78.72
72285;BME280;60220;53.552;10.092;2022-10-15T05:07:27;100392.50;;;14.57;78.25
72285;BME280;60220;53.552;10.092;2022-10-15T05:09:55;100397.41;;;14.92;76.89
72285;BME280;60220;53.552;10.092;2022-10-15T05:12:21;100386.97;;;15.13;75.45
72285;BME280;60220;53.552;10.092;2022-10-15T05:14:48;100398.44;;;14.11;77.54
72285;BME280;60220;53.552;10.092;2022-10-15T05:17:14;100400.25;;;14.37;77.98
72285;BME280;60220;53.552;10.092;2022-10-15T05:19:41;100412.34;;;14.16;78.42
72285;BME280;60220;53.552;10.092;2022-10-15T05:22:08;100407.97;;;14.43;77.39
72285;BME280;60220;53.552;10.092;2022-10-15T05:24:34;100412.34;;;14.16;77.60
72285;BME280;60220;53.552;10.092;2022-10-15T05:27:02;100416.00;;;14.12;77.49
72285;BME280;60220;53.552;10.092;2022-10-15T05:29:31;100421.84;;;14.21;77.29
72285;BME280;60220;53.552;10.092;2022-10-15T05:31:58;100418.28;;;13.96;78.87
72285;BME280;60220;53.552;10.092;2022-10-15T05:34:24;100418.31;;;13.67;79.30
72285;BME280;60220;53.552;10.092;2022-10-15T05:36:54;100421.91;;;13.35;80.92
72285;BME280;60220;53.552;10.092;2022-10-15T05:39:21;100422.25;;;13.54;80.43
72285;BME280;60220;53.552;10.092;2022-10-15T05:41:48;100425.97;;;13.47;81.02
72285;BME280;60220;53.552;10.092;2022-10-15T05:44:16;100427.53;;;14.09;78.13
72285;BME280;60220;53.552;10.092;2022-10-15T05:46:44;100422.44;;;14.30;77.23
72285;BME280;60220;53.552;10.092;2022-10-15T05:49:13;100435.00;;;13.95;78.17
72285;BME280;60220;53.552;10.092;2022-10-15T05:51:40;100417.69;;;14.67;76.02
72285;BME280;60220;53.552;10.092;2022-10-15T05:54:06;100430.06;;;13.27;80.10
72285;BME280;60220;53.552;10.092;2022-10-15T05:56:33;100429.72;;;13.40;80.53
72285;BME280;60220;53.552;10.092;2022-10-15T05:59:00;100431.97;;;13.52;79.74
72285;BME280;60220;53.552;10.092;2022-10-15T06:01:29;100433.25;;;13.39;79.72
72285;BME280;60220;53.552;10.092;2022-10-15T06:03:56;100435.16;;;13.33;79.98
72285;BME280;60220;53.552;10.092;2022-10-15T06:06:23;100441.44;;;13.59;80.23
72285;BME280;60220;53.552;10.092;2022-10-15T06:08:51;100443.59;;;14.02;77.87
72285;BME280;60220;53.552;10.092;2022-10-15T06:11:18;100441.06;;;13.99;77.83
72285;BME280;60220;53.552;10.092;2022-10-15T06:13:45;100438.84;;;13.85;78.17
72285;BME280;60220;53.552;10.092;2022-10-15T06:16:16;100441.66;;;14.08;77.89
72285;BME280;60220;53.552;10.092;2022-10-15T06:18:44;100436.75;;;14.24;76.79
72285;BME280;60220;53.552;10.092;2022-10-15T06:21:11;100444.53;;;13.73;79.05
72285;BME280;60220;53.552;10.092;2022-10-15T06:23:37;100444.38;;;14.05;77.13
72285;BME280;60220;53.552;10.092;2022-10-15T06:26:06;100437.16;;;13.84;77.64
72285;BME280;60220;53.552;10.092;2022-10-15T06:28:34;100442.09;;;14.49;75.37
72285;BME280;60220;53.552;10.092;2022-10-15T06:31:01;100447.97;;;14.57;74.77
72285;BME280;60220;53.552;10.092;2022-10-15T06:33:30;100454.28;;;14.53;75.21
72285;BME280;60220;53.552;10.092;2022-10-15T06:36:01;100449.75;;;14.81;74.31
72285;BME280;60220;53.552;10.092;2022-10-15T06:38:28;100457.94;;;14.21;76.91
72285;BME280;60220;53.552;10.092;2022-10-15T06:40:55;100457.28;;;14.14;78.03
72285;BME280;60220;53.552;10.092;2022-10-15T06:43:21;100461.09;;;14.32;76.50
72285;BME280;60220;53.552;10.092;2022-10-15T06:45:50;100463.41;;;14.43;75.98
72285;BME280;60220;53.552;10.092;2022-10-15T06:48:17;100466.56;;;14.26;76.28
72285;BME280;60220;53.552;10.092;2022-10-15T06:50:44;100464.69;;;14.30;76.21
72285;BME280;60220;53.552;10.092;2022-10-15T06:53:11;100467.09;;;14.39;75.27
72285;BME280;60220;53.552;10.092;2022-10-15T06:55:38;100460.28;;;14.58;74.78
72285;BME280;60220;53.552;10.092;2022-10-15T06:58:05;100460.91;;;13.84;77.49
72285;BME280;60220;53.552;10.092;2022-10-15T07:00:34;100462.88;;;14.32;76.48
72285;BME280;60220;53.552;10.092;2022-10-15T07:03:02;100462.53;;;13.59;78.54
72285;BME280;60220;53.552;10.092;2022-10-15T07:05:30;100467.22;;;13.78;77.48
72285;BME280;60220;53.552;10.092;2022-10-15T07:07:57;100469.28;;;13.69;79.09
72285;BME280;60220;53.552;10.092;2022-10-15T07:10:28;100475.16;;;13.77;78.99
72285;BME280;60220;53.552;10.092;2022-10-15T07:12:54;100463.78;;;13.75;77.90
72285;BME280;60220;53.552;10.092;2022-10-15T07:15:21;100468.41;;;13.39;79.57
72285;BME280;60220;53.552;10.092;2022-10-15T07:17:48;100467.53;;;13.96;78.80
72285;BME280;60220;53.552;10.092;2022-10-15T07:20:15;100471.53;;;14.63;76.33
72285;BME280;60220;53.552;10.092;2022-10-15T07:22:41;100473.56;;;13.71;78.59
72285;BME280;60220;53.552;10.092;2022-10-15T07:25:08;100479.63;;;13.75;78.33
72285;BME280;60220;53.552;10.092;2022-10-15T07:27:36;100480.25;;;13.24;80.57
72285;BME280;60220;53.552;10.092;2022-10-15T07:30:05;100479.88;;;13.36;79.74
72285;BME280;60220;53.552;10.092;2022-10-15T07:32:31;100475.41;;;14.25;76.92
72285;BME280;60220;53.552;10.092;2022-10-15T07:34:58;100482.31;;;14.01;77.24
72285;BME280;60220;53.552;10.092;2022-10-15T07:37:25;100473.69;;;13.39;79.21
72285;BME280;60220;53.552;10.092;2022-10-15T07:39:51;100474.63;;;14.21;77.93
72285;BME280;60220;53.552;10.092;2022-10-15T07:42:18;100487.88;;;14.20;76.29
72285;BME280;60220;53.552;10.092;2022-10-15T07:44:46;100479.78;;;14.26;77.30
72285;BME280;60220;53.552;10.092;2022-10-15T07:47:12;100485.06;;;14.54;75.29
72285;BME280;60220;53.552;10.092;2022-10-15T07:49:39;100493.06;;;14.51;75.68
72285;BME280;60220;53.552;10.092;2022-10-15T07:52:05;100480.44;;;14.85;74.66
72285;BME280;60220;53.552;10.092;2022-10-15T07:54:33;100491.16;;;14.00;77.83
72285;BME280;60220;53.552;10.092;2022-10-15T07:57:02;100492.56;;;13.55;79.35
72285;BME280;60220;53.552;10.092;2022-10-15T07:59:31;100489.63;;;13.93;78.17
72285;BME280;60220;53.552;10.092;2022-10-15T08:01:59;100487.47;;;13.78;77.84
72285;BME280;60220;53.552;10.092;2022-10-15T08:04:28;100481.81;;;13.61;79.51
72285;BME280;60220;53.552;10.092;2022-10-15T08:06:55;100484.09;;;13.44;80.32
72285;BME280;60220;53.552;10.092;2022-10-15T08:09:21;100473.81;;;13.34;80.30
72285;BME280;60220;53.552;10.092;2022-10-15T08:11:50;100479.06;;;14.49;76.68
72285;BME280;60220;53.552;10.092;2022-10-15T08:14:17;100489.91;;;13.84;78.31
72285;BME280;60220;53.552;10.092;2022-10-15T08:16:43;100482.19;;;13.49;79.88
72285;BME280;60220;53.552;10.092;2022-10-15T08:19:11;100478.59;;;14.08;77.36
72285;BME280;60220;53.552;10.092;2022-10-15T08:21:41;100478.31;;;14.70;76.28
72285;BME280;60220;53.552;10.092;2022-10-15T08:24:08;100480.13;;;14.43;75.75
72285;BME280;60220;53.552;10.092;2022-10-15T08:26:37;100477.53;;;13.86;78.14
72285;BME280;60220;53.552;10.092;2022-10-15T08:29:04;100478.53;;;13.53;79.94
72285;BME280;60220;53.552;10.092;2022-10-15T08:31:30;100493.53;;;14.09;77.64
72285;BME280;60220;53.552;10.092;2022-10-15T08:33:58;100491.44;;;13.62;78.83
72285;BME280;60220;53.552;10.092;2022-10-15T08:36:26;100495.81;;;13.33;80.02
72285;BME280;60220;53.552;10.092;2022-10-15T08:38:53;100497.97;;;13.19;80.45
72285;BME280;60220;53.552;10.092;2022-10-15T08:41:25;100486.00;;;13.39;80.69
72285;BME280;60220;53.552;10.092;2022-10-15T08:43:57;100490.09;;;13.78;79.47
72285;BME280;60220;53.552;10.092;2022-10-15T08:46:28;100493.84;;;13.99;77.53
72285;BME280;60220;53.552;10.092;2022-10-15T08:48:59;100491.88;;;14.05;78.32
72285;BME280;60220;53.552;10.092;2022-10-15T08:51:37;100492.88;;;14.01;77.73
72285;BME280;60220;53.552;10.092;2022-10-15T08:54:10;100488.63;;;13.97;78.11
72285;BME280;60220;53.552;10.092;2022-10-15T08:56:44;100491.44;;;13.62;78.92
72285;BME280;60220;53.552;10.092;2022-10-15T08:59:30;100494.53;;;13.76;78.39
72285;BME280;60220;53.552;10.092;2022-10-15T09:02:07;100488.09;;;14.42;76.53
72285;BME280;60220;53.552;10.092;2022-10-15T09:04:47;100490.94;;;14.88;74.72
72285;BME280;60220;53.552;10.092;2022-10-15T09:07:23;100497.38;;;13.99;77.65
72285;BME280;60220;53.552;10.092;2022-10-15T09:09:55;100503.44;;;14.01;77.66
72285;BME280;60220;53.552;10.092;2022-10-15T09:12:37;100495.50;;;15.08;74.71
72285;BME280;60220;53.552;10.092;2022-10-15T09:15:12;100507.44;;;14.42;75.77
72285;BME280;60220;53.552;10.092;2022-10-15T09:17:40;100499.66;;;14.90;75.11
72285;BME280;60220;53.552;10.092;2022-10-15T09:20:14;100501.69;;;14.82;75.46
72285;BME280;60220;53.552;10.092;2022-10-15T09:22:42;100507.81;;;14.58;75.41
72285;BME280;60220;53.552;10.092;2022-10-15T09:25:14;100509.34;;;14.39;76.39
72285;BME280;60220;53.552;10.092;2022-10-15T09:27:41;100501.72;;;14.56;76.35
72285;BME280;60220;53.552;10.092;2022-10-15T09:30:19;100494.84;;;14.50;75.25
72285;BME280;60220;53.552;10.092;2022-10-15T09:32:54;100498.34;;;14.51;76.08
72285;BME280;60220;53.552;10.092;2022-10-15T09:35:26;100507.00;;;14.56;75.77
72285;BME280;60220;53.552;10.092;2022-10-15T09:38:00;100497.66;;;14.72;75.20
72285;BME280;60220;53.552;10.092;2022-10-15T09:40:38;100500.88;;;15.05;74.87
72285;BME280;60220;53.552;10.092;2022-10-15T09:43:08;100491.06;;;15.58;72.30
72285;BME280;60220;53.552;10.092;2022-10-15T09:45:35;100494.94;;;15.48;71.77
72285;BME280;60220;53.552;10.092;2022-10-15T09:48:12;100487.91;;;15.47;73.13
72285;BME280;60220;53.552;10.092;2022-10-15T09:50:43;100485.44;;;15.42;73.05
72285;BME280;60220;53.552;10.092;2022-10-15T09:53:17;100487.28;;;15.16;73.41
72285;BME280;60220;53.552;10.092;2022-10-15T09:55:48;100494.13;;;15.46;72.17
72285;BME280;60220;53.552;10.092;2022-10-15T09:58:21;100500.16;;;14.75;74.56
72285;BME280;60220;53.552;10.092;2022-10-15T10:00:55;100495.06;;;14.95;74.13
72285;BME280;60220;53.552;10.092;2022-10-15T10:03:24;100494.66;;;15.07;73.91
72285;BME280;60220;53.552;10.092;2022-10-15T10:05:58;100496.75;;;15.23;73.45
72285;BME280;60220;53.552;10.092;2022-10-15T10:08:28;100492.25;;;15.25;73.12
72285;BME280;60220;53.552;10.092;2022-10-15T10:10:58;100485.97;;;15.29;73.35
72285;BME280;60220;53.552;10.092;2022-10-15T10:13:30;100491.09;;;15.57;72.25
72285;BME280;60220;53.552;10.092;2022-10-15T10:16:02;100485.31;;;15.45;73.01
72285;BME280;60220;53.552;10.092;2022-10-15T10:18:30;100487.72;;;15.53;72.60
72285;BME280;60220;53.552;10.092;2022-10-15T10:20:58;100480.75;;;16.19;70.86
72285;BME280;60220;53.552;10.092;2022-10-15T10:23:30;100486.22;;;16.36;69.73
72285;BME280;60220;53.552;10.092;2022-10-15T10:26:00;100472.91;;;16.59;69.67
72285;BME280;60220;53.552;10.092;2022-10-15T10:28:31;100474.78;;;16.14;69.98
72285;BME280;60220;53.552;10.092;2022-10-15T10:31:02;100476.94;;;17.29;66.27
72285;BME280;60220;53.552;10.092;2022-10-15T10:33:35;100482.25;;;16.24;68.92
72285;BME280;60220;53.552;10.092;2022-10-15T10:36:04;100482.19;;;15.82;70.24
72285;BME280;60220;53.552;10.092;2022-10-15T10:38:34;100473.56;;;15.99;69.95
72285;BME280;60220;53.552;10.092;2022-10-15T10:41:03;100475.75;;;16.33;68.95
72285;BME280;60220;53.552;10.092;2022-10-15T10:43:33;100477.91;;;16.02;69.11
72285;BME280;60220;53.552;10.092;2022-10-15T10:46:03;100473.75;;;15.94;70.09
72285;BME280;60220;53.552;10.092;2022-10-15T10:48:38;100467.59;;;15.94;70.63
72285;BME280;60220;53.552;10.092;2022-10-15T10:51:13;100470.84;;;16.44;69.51
72285;BME280;60220;53.552;10.092;2022-10-15T10:53:53;100473.31;;;16.70;68.36
72285;BME280;60220;53.552;10.092;2022-10-15T10:56:22;100467.97;;;17.31;66.58
72285;BME280;60220;53.552;10.092;2022-10-15T10:58:54;100468.97;;;16.48;67.66
72285;BME280;60220;53.552;10.092;2022-10-15T11:01:22;100475.69;;;16.13;69.60
72285;BME280;60220;53.552;10.092;2022-10-15T11:03:49;100468.72;;;15.88;69.78
72285;BME280;60220;53.552;10.092;2022-10-15T11:06:40;100460.00;;;16.08;69.99
72285;BME280;60220;53.552;10.092;2022-10-15T11:09:20;100457.75;;;15.98;70.01
72285;BME280;60220;53.552;10.092;2022-10-15T11:11:59;100474.50;;;16.20;68.36
72285;BME280;60220;53.552;10.092;2022-10-15T11:14:34;100465.56;;;16.44;67.86
72285;BME280;60220;53.552;10.092;2022-10-15T11:17:12;100460.91;;;16.49;67.72
72285;BME280;60220;53.552;10.092;2022-10-15T11:19:44;100457.59;;;16.44;67.92
72285;BME280;60220;53.552;10.092;2022-10-15T11:22:28;100451.38;;;16.87;65.48
72285;BME280;60220;53.552;10.092;2022-10-15T11:25:07;100456.88;;;17.03;64.36
72285;BME280;60220;53.552;10.092;2022-10-15T11:27:47;100460.19;;;17.08;64.83
72285;BME280;60220;53.552;10.092;2022-10-15T11:30:27;100455.25;;;17.19;64.96
72285;BME280;60220;53.552;10.092;2022-10-15T11:33:00;100452.38;;;18.00;62.75
72285;BME280;60220;53.552;10.092;2022-10-15T11:35:35;100458.53;;;18.19;60.18
72285;BME280;60220;53.552;10.092;2022-10-15T11:38:17;100443.72;;;17.96;60.90
72285;BME280;60220;53.552;10.092;2022-10-15T11:40:57;100445.69;;;16.96;61.62
72285;BME280;60220;53.552;10.092;2022-10-15T11:43:42;100436.59;;;17.02;61.69
72285;BME280;60220;53.552;10.092;2022-10-15T11:46:20;100440.78;;;16.67;62.82
72285;BME280;60220;53.552;10.092;2022-10-15T11:49:01;100440.34;;;17.74;60.30
72285;BME280;60220;53.552;10.092;2022-10-15T11:51:33;100449.19;;;17.36;60.50
72285;BME280;60220;53.552;10.092;2022-10-15T11:54:11;100446.72;;;17.12;61.09
72285;BME280;60220;53.552;10.092;2022-10-15T11:56:44;100440.81;;;17.26;61.10
72285;BME280;60220;53.552;10.092;2022-10-15T11:59:27;100442.81;;;17.58;59.71
72285;BME280;60220;53.552;10.092;2022-10-15T12:02:00;100447.31;;;17.19;61.50
72285;BME280;60220;53.552;10.092;2022-10-15T12:04:34;100449.72;;;17.05;61.35
72285;BME280;60220;53.552;10.092;2022-10-15T12:07:05;100436.56;;;17.61;60.51
72285;BME280;60220;53.552;10.092;2022-10-15T12:09:35;100443.03;;;17.35;60.41
72285;BME280;60220;53.552;10.092;2022-10-15T12:12:11;100434.34;;;17.32;61.60
72285;BME280;60220;53.552;10.092;2022-10-15T12:14:47;100428.13;;;17.51;61.26
72285;BME280;60220;53.552;10.092;2022-10-15T12:17:19;100430.47;;;17.78;60.77
72285;BME280;60220;53.552;10.092;2022-10-15T12:19:50;100426.41;;;18.06;59.78
72285;BME280;60220;53.552;10.092;2022-10-15T12:22:32;100416.69;;;17.12;62.22
72285;BME280;60220;53.552;10.092;2022-10-15T12:24:59;100419.06;;;17.18;61.44
72285;BME280;60220;53.552;10.092;2022-10-15T12:27:30;100408.84;;;17.85;59.74
72285;BME280;60220;53.552;10.092;2022-10-15T12:30:22;100401.94;;;17.25;60.63
72285;BME280;60220;53.552;10.092;2022-10-15T12:32:50;100398.84;;;17.34;60.44
72285;BME280;60220;53.552;10.092;2022-10-15T12:35:23;100393.97;;;17.25;59.59
72285;BME280;60220;53.552;10.092;2022-10-15T12:37:50;100391.91;;;17.88;58.42
72285;BME280;60220;53.552;10.092;2022-10-15T12:40:26;100391.25;;;18.01;58.65
72285;BME280;60220;53.552;10.092;2022-10-15T12:42:57;100383.03;;;18.06;59.48
72285;BME280;60220;53.552;10.092;2022-10-15T12:45:36;100379.78;;;18.53;58.36
72285;BME280;60220;53.552;10.092;2022-10-15T12:48:18;100392.22;;;17.82;61.30
72285;BME280;60220;53.552;10.092;2022-10-15T12:50:45;100382.69;;;17.78;58.71
72285;BME280;60220;53.552;10.092;2022-10-15T12:53:28;100386.53;;;17.71;59.21
72285;BME280;60220;53.552;10.092;2022-10-15T12:56:20;100377.56;;;18.09;56.76
72285;BME280;60220;53.552;10.092;2022-10-15T12:58:49;100381.34;;;18.22;56.98